Time;durP1;ratioP1;P1;durP2;ratioP2;P2;SDS_P1;SDS_P2;PMS_P1;PMS_P2;Temp;Humidity;BMP_temperature;BMP_pressure;BME280_temperature;BME280_humidity;BME280_pressure;Samples;Min_cycle;Max_cycle;Signal;HPM_P1;HPM_P2
2022/04/20 00:01:05;;;;;;;5.53;4.50;;;7.80;99.90;;;;;;4772633;30;20078;-69
2022/04/20 00:03:31;;;;;;;5.88;4.57;;;7.80;99.90;;;;;;4788176;29;20055;-70
2022/04/20 00:05:57;;;;;;;5.22;4.03;;;7.80;99.90;;;;;;4790354;30;20382;-70
2022/04/20 00:08:22;;;;;;;5.05;4.55;;;7.80;99.90;;;;;;4773243;30;20120;-69
2022/04/20 00:10:48;;;;;;;7.47;4.50;;;7.70;99.90;;;;;;4773971;29;20063;-70
2022/04/20 00:13:14;;;;;;;4.68;4.00;;;7.70;99.90;;;;;;4788973;29;20055;-69
2022/04/20 00:15:39;;;;;;;8.70;5.40;;;7.70;99.90;;;;;;4788261;30;20055;-70
2022/04/20 00:18:05;;;;;;;6.85;3.88;;;7.70;99.90;;;;;;4789587;30;20051;-68
2022/04/20 00:20:30;;;;;;;6.97;5.43;;;7.60;99.90;;;;;;4775807;30;20504;-69
2022/04/20 00:22:56;;;;;;;7.30;4.70;;;7.60;99.90;;;;;;4773386;30;20055;-69
2022/04/20 00:25:21;;;;;;;9.13;4.47;;;7.60;99.90;;;;;;4789713;30;20052;-68
2022/04/20 00:27:47;;;;;;;7.30;4.35;;;7.50;99.90;;;;;;4786162;29;20142;-71
2022/04/20 00:30:13;;;;;;;4.97;4.30;;;7.50;99.90;;;;;;4773318;30;20409;-69
2022/04/20 00:32:40;;;;;;;6.88;4.57;;;7.50;99.90;;;;;;4772833;30;20138;-70
2022/04/20 00:35:10;;;;;;;6.32;4.53;;;7.50;99.90;;;;;;4786964;29;20058;-68
2022/04/20 00:37:39;;;;;;;5.38;4.57;;;7.40;99.90;;;;;;4788645;30;20051;-70
2022/04/20 00:40:05;;;;;;;5.25;4.22;;;7.40;99.90;;;;;;4788577;30;20047;-70
2022/04/20 00:42:31;;;;;;;8.50;4.63;;;7.40;99.90;;;;;;4785925;29;20146;-69
2022/04/20 00:44:57;;;;;;;5.97;4.30;;;7.40;99.90;;;;;;4771390;30;20059;-70
2022/04/20 00:47:24;;;;;;;13.32;5.22;;;7.30;99.90;;;;;;4786262;30;20066;-69
2022/04/20 00:49:50;;;;;;;6.88;4.68;;;7.40;99.90;;;;;;4789339;30;20059;-68
2022/04/20 00:52:16;;;;;;;5.47;4.43;;;7.40;99.90;;;;;;4771038;30;20564;-70
2022/04/20 00:54:41;;;;;;;5.47;4.60;;;7.30;99.90;;;;;;4787905;30;20138;-70
2022/04/20 00:57:07;;;;;;;8.35;5.00;;;7.30;99.90;;;;;;4788050;30;20101;-68
2022/04/20 00:59:35;;;;;;;6.80;4.97;;;7.30;99.90;;;;;;4772343;30;20456;-69
2022/04/20 01:02:02;;;;;;;5.15;4.50;;;7.30;99.90;;;;;;4788429;30;20128;-70
2022/04/20 01:04:28;;;;;;;7.80;5.00;;;7.20;99.90;;;;;;4787858;30;20539;-71
2022/04/20 01:06:53;;;;;;;8.23;4.72;;;7.20;99.90;;;;;;4788611;29;20059;-68
2022/04/20 01:09:19;;;;;;;7.38;5.00;;;7.10;99.90;;;;;;4771720;30;20074;-70
2022/04/20 01:11:45;;;;;;;6.68;5.00;;;7.10;99.90;;;;;;4788872;29;20055;-70
2022/04/20 01:14:11;;;;;;;8.13;4.85;;;7.10;99.90;;;;;;4772532;30;20062;-69
2022/04/20 01:16:37;;;;;;;7.25;5.45;;;7.10;99.90;;;;;;4789974;29;20055;-69
2022/04/20 01:19:03;;;;;;;9.85;5.65;;;7.00;99.90;;;;;;4787675;29;20059;-70
2022/04/20 01:21:30;;;;;;;8.57;5.03;;;7.00;99.90;;;;;;4787233;29;20111;-69
2022/04/20 01:23:56;;;;;;;7.03;4.82;;;7.00;99.90;;;;;;4785072;30;20497;-70
2022/04/20 01:26:21;;;;;;;6.43;5.00;;;7.00;99.90;;;;;;4770402;30;20059;-70
2022/04/20 01:28:47;;;;;;;6.72;4.80;;;6.90;99.90;;;;;;4771163;29;20424;-69
2022/04/20 01:31:17;;;;;;;6.80;4.90;;;7.00;99.90;;;;;;4772724;30;20055;-70
2022/04/20 01:33:44;;;;;;;7.63;5.38;;;6.90;99.90;;;;;;4788812;29;20066;-70
2022/04/20 01:36:10;;;;;;;9.00;5.28;;;6.90;99.90;;;;;;4770483;30;20065;-70
2022/04/20 01:38:39;;;;;;;6.70;5.38;;;6.90;99.90;;;;;;4772532;30;20070;-70
2022/04/20 01:41:05;;;;;;;8.60;5.65;;;6.90;99.90;;;;;;4772125;30;20098;-70
2022/04/20 01:43:31;;;;;;;6.30;5.28;;;6.80;99.90;;;;;;4786579;29;20078;-69
2022/04/20 01:45:57;;;;;;;6.10;4.90;;;6.80;99.90;;;;;;4786905;29;20504;-70
2022/04/20 01:48:22;;;;;;;7.15;5.18;;;6.70;99.90;;;;;;4786234;29;20134;-70
2022/04/20 01:53:33;;;;;;;7.50;5.65;;;6.70;99.90;;;;;;4787487;29;20502;-68
2022/04/20 01:56:03;;;;;;;9.90;5.80;;;6.60;99.90;;;;;;4785786;30;20073;-71
2022/04/20 01:58:28;;;;;;;7.82;5.32;;;6.60;99.90;;;;;;4770255;30;20066;-69
2022/04/20 02:00:54;;;;;;;8.73;5.50;;;6.60;99.90;;;;;;4760403;30;20060;-70
2022/04/20 02:03:19;;;;;;;7.20;6.03;;;6.60;99.90;;;;;;4768542;30;20059;-69
2022/04/20 02:05:45;;;;;;;6.63;5.38;;;6.50;99.90;;;;;;4770471;30;20059;-69
2022/04/20 02:08:11;;;;;;;6.13;5.03;;;6.50;99.90;;;;;;4769144;30;20051;-69
2022/04/20 02:10:36;;;;;;;8.02;5.72;;;6.50;99.90;;;;;;4769827;30;20068;-69
2022/04/20 02:13:02;;;;;;;7.80;5.72;;;6.50;99.90;;;;;;4782963;29;20054;-70
2022/04/20 02:15:28;;;;;;;7.55;5.43;;;6.50;99.90;;;;;;4774595;30;20058;-70
2022/04/20 02:17:54;;;;;;;7.57;5.28;;;6.50;99.90;;;;;;4771459;30;20060;-68
2022/04/20 02:20:20;;;;;;;8.15;5.80;;;6.40;99.90;;;;;;4772155;30;20060;-70
2022/04/20 02:22:46;;;;;;;8.82;5.47;;;6.40;99.90;;;;;;4771009;30;20076;-70
2022/04/20 02:25:11;;;;;;;8.77;4.97;;;6.40;99.90;;;;;;4771201;30;20482;-70
2022/04/20 02:27:37;;;;;;;6.40;4.82;;;6.40;99.90;;;;;;4786436;29;20801;-69
2022/04/20 02:30:04;;;;;;;7.43;4.95;;;6.40;99.90;;;;;;4769460;30;20378;-70
2022/04/20 02:32:30;;;;;;;6.85;5.75;;;6.40;99.90;;;;;;4787191;30;20056;-68
2022/04/20 02:34:55;;;;;;;8.52;6.15;;;6.40;99.90;;;;;;4771645;30;20074;-69
2022/04/20 02:37:22;;;;;;;7.03;5.72;;;6.40;99.90;;;;;;4771327;30;20052;-68
2022/04/20 02:39:48;;;;;;;8.52;6.07;;;6.30;99.90;;;;;;4787073;30;20063;-69
2022/04/20 02:42:13;;;;;;;9.43;5.93;;;6.30;99.90;;;;;;4770272;30;20056;-70
2022/04/20 02:44:40;;;;;;;8.65;5.35;;;6.30;99.90;;;;;;4770404;30;20181;-70
2022/04/20 02:47:05;;;;;;;9.02;5.65;;;6.30;99.90;;;;;;4785678;29;20062;-70
2022/04/20 02:49:31;;;;;;;8.82;5.68;;;6.20;99.90;;;;;;4771197;30;20055;-70
2022/04/20 02:51:57;;;;;;;12.38;5.70;;;6.30;99.90;;;;;;4771135;30;20504;-69
2022/04/20 02:54:22;;;;;;;9.30;5.30;;;6.10;99.90;;;;;;4786060;30;20059;-71
2022/04/20 02:56:48;;;;;;;8.40;6.15;;;6.10;99.90;;;;;;4770728;30;20201;-71
2022/04/20 02:59:13;;;;;;;8.80;5.35;;;6.10;99.90;;;;;;4786775;29;20134;-70
2022/04/20 03:01:39;;;;;;;8.77;5.93;;;6.10;99.90;;;;;;4770402;30;20146;-72
2022/04/20 03:04:05;;;;;;;8.68;5.95;;;6.10;99.90;;;;;;4770984;30;20462;-69
2022/04/20 03:06:30;;;;;;;6.22;5.45;;;6.00;99.90;;;;;;4774897;30;20558;-70
2022/04/20 03:08:56;;;;;;;10.25;5.80;;;6.00;99.90;;;;;;4789040;29;20063;-69
2022/04/20 03:11:22;;;;;;;11.38;6.20;;;6.00;99.90;;;;;;4789558;29;20082;-71
2022/04/20 03:13:48;;;;;;;9.18;5.90;;;6.00;99.90;;;;;;4788404;29;20066;-71
2022/04/20 03:16:14;;;;;;;9.43;5.05;;;6.00;99.90;;;;;;4776403;30;20063;-71
2022/04/20 03:18:40;;;;;;;7.15;5.72;;;6.00;99.90;;;;;;4789718;30;20059;-69
2022/04/20 03:21:06;;;;;;;7.43;5.82;;;6.00;99.90;;;;;;4774085;29;20086;-70
2022/04/20 03:23:32;;;;;;;7.68;5.25;;;5.90;99.90;;;;;;4774267;30;20055;-70
2022/04/20 03:25:58;;;;;;;8.30;5.03;;;6.00;99.90;;;;;;4774671;30;20090;-69
2022/04/20 03:28:23;;;;;;;7.18;5.50;;;5.90;99.90;;;;;;4788844;29;20146;-69
2022/04/20 03:30:50;;;;;;;8.07;5.50;;;5.90;99.90;;;;;;4774728;30;20067;-69
2022/04/20 03:33:16;;;;;;;7.97;5.22;;;5.80;99.90;;;;;;4774058;30;20089;-69
2022/04/20 03:35:43;;;;;;;7.30;5.30;;;5.80;99.90;;;;;;4788902;30;20138;-68
2022/04/20 03:38:09;;;;;;;8.95;5.40;;;5.80;99.90;;;;;;4790493;30;20067;-71
2022/04/20 03:40:35;;;;;;;7.65;5.78;;;5.80;99.90;;;;;;4789228;29;20104;-70
2022/04/20 03:43:02;;;;;;;8.15;5.75;;;5.70;99.90;;;;;;4787435;29;20493;-70
2022/04/20 03:45:28;;;;;;;8.35;5.45;;;5.70;99.90;;;;;;4774643;30;20557;-71
2022/04/20 03:47:53;;;;;;;8.05;5.80;;;5.60;99.90;;;;;;4773997;30;20188;-69
2022/04/20 03:50:19;;;;;;;11.90;6.72;;;5.60;99.90;;;;;;4789214;29;20536;-70
2022/04/20 03:52:45;;;;;;;8.75;5.82;;;5.60;99.90;;;;;;4773943;30;20055;-69
2022/04/20 03:55:11;;;;;;;8.55;5.72;;;5.50;99.90;;;;;;4773381;30;20055;-69
2022/04/20 03:57:36;;;;;;;7.85;5.30;;;5.50;99.90;;;;;;4788489;30;20055;-70
2022/04/20 04:00:04;;;;;;;9.52;5.35;;;5.50;99.90;;;;;;4788850;30;20130;-71
2022/04/20 04:02:30;;;;;;;7.72;5.63;;;5.40;99.90;;;;;;4773746;30;20071;-70
2022/04/20 04:04:56;;;;;;;8.32;5.32;;;5.40;99.90;;;;;;4776911;30;20451;-70
2022/04/20 04:07:22;;;;;;;9.27;6.20;;;5.50;99.90;;;;;;4789812;29;20059;-71
2022/04/20 04:09:47;;;;;;;7.97;5.35;;;5.50;99.90;;;;;;4789058;29;20130;-70
2022/04/20 04:12:13;;;;;;;9.63;5.88;;;5.50;99.90;;;;;;4788295;30;20057;-70
2022/04/20 04:14:39;;;;;;;7.72;6.20;;;5.40;99.90;;;;;;4772702;30;20082;-70
2022/04/20 04:17:06;;;;;;;8.93;5.70;;;5.40;99.90;;;;;;4775169;30;20063;-71
2022/04/20 04:19:32;;;;;;;8.85;5.55;;;5.40;99.90;;;;;;4788114;29;20055;-70
2022/04/20 04:21:57;;;;;;;8.73;5.40;;;5.40;99.90;;;;;;4788027;30;20051;-69
2022/04/20 04:24:35;;;;;;;9.20;6.05;;;5.30;99.90;;;;;;4772853;30;20161;-70
2022/04/20 04:27:02;;;;;;;7.43;5.63;;;5.30;99.90;;;;;;4764353;30;20056;-69
2022/04/20 04:29:28;;;;;;;8.63;6.03;;;5.30;99.90;;;;;;4770248;30;20048;-68
2022/04/20 04:31:54;;;;;;;10.07;5.93;;;5.30;99.90;;;;;;4755550;30;20585;-70
2022/04/20 04:34:20;;;;;;;9.00;5.72;;;5.30;99.90;;;;;;4771663;30;20116;-71
2022/04/20 04:36:46;;;;;;;8.38;5.43;;;5.30;99.90;;;;;;4788446;30;20439;-70
2022/04/20 04:39:13;;;;;;;8.43;5.38;;;5.30;99.90;;;;;;4772628;30;20513;-69
2022/04/20 04:41:39;;;;;;;8.15;6.20;;;5.30;99.90;;;;;;4788936;30;20089;-70
2022/04/20 04:44:05;;;;;;;9.48;5.82;;;5.30;99.90;;;;;;4771290;30;20466;-69
2022/04/20 04:49:15;;;;;;;6.75;5.05;;;5.30;99.90;;;;;;4787714;29;20091;-69
2022/04/20 04:51:41;;;;;;;13.10;5.90;;;5.20;99.90;;;;;;4786090;29;20102;-70
2022/04/20 04:54:07;;;;;;;8.00;5.57;;;5.20;99.90;;;;;;4772422;30;20460;-70
2022/04/20 04:56:33;;;;;;;9.43;5.32;;;5.30;99.90;;;;;;4787891;29;20058;-71
2022/04/20 04:58:59;;;;;;;10.55;5.45;;;5.20;99.90;;;;;;4771762;30;20102;-70
2022/04/20 05:01:25;;;;;;;8.85;6.20;;;5.20;99.90;;;;;;4772607;30;20095;-70
2022/04/20 05:03:53;;;;;;;7.03;5.55;;;5.30;99.90;;;;;;4771619;30;20141;-68
2022/04/20 05:06:19;;;;;;;7.50;5.28;;;5.20;99.90;;;;;;4787514;29;21535;-69
2022/04/20 05:08:44;;;;;;;8.70;6.00;;;5.30;99.90;;;;;;4771716;30;20059;-71
2022/04/20 05:11:10;;;;;;;8.45;5.63;;;5.30;99.90;;;;;;4769989;30;20059;-70
2022/04/20 05:13:35;;;;;;;8.35;5.18;;;5.30;99.90;;;;;;4771438;30;20044;-70
2022/04/20 05:16:01;;;;;;;11.48;5.68;;;5.30;99.90;;;;;;4771189;30;20237;-71
2022/04/20 05:18:26;;;;;;;8.43;5.80;;;5.30;99.90;;;;;;4786884;30;20198;-70
2022/04/20 05:20:52;;;;;;;7.80;5.47;;;5.40;99.90;;;;;;4772357;30;20113;-69
2022/04/20 05:23:17;;;;;;;7.82;5.40;;;5.40;99.90;;;;;;4785989;30;20059;-70
2022/04/20 05:25:43;;;;;;;10.98;5.47;;;5.50;99.90;;;;;;4771865;30;20051;-69
2022/04/20 05:28:08;;;;;;;6.60;5.45;;;5.50;99.90;;;;;;4772234;30;20078;-69
2022/04/20 05:30:34;;;;;;;7.90;6.07;;;5.70;99.90;;;;;;4772998;30;20135;-69
2022/04/20 05:33:00;;;;;;;9.75;6.00;;;5.90;99.90;;;;;;4787838;29;20066;-71
2022/04/20 05:35:25;;;;;;;7.78;5.47;;;6.20;99.90;;;;;;4771441;30;20505;-70
2022/04/20 05:43:22;;;;;;;7.03;5.80;;;6.50;99.90;;;;;;4785057;29;20130;-69
2022/04/20 05:45:50;;;;;;;10.75;5.80;;;6.60;99.90;;;;;;4772382;30;20161;-70
2022/04/20 05:48:15;;;;;;;7.93;5.53;;;6.60;99.90;;;;;;4785568;29;20054;-71
2022/04/20 05:50:43;;;;;;;6.78;5.55;;;6.90;99.90;;;;;;4771099;29;20059;-70
2022/04/20 05:53:09;;;;;;;7.70;5.50;;;8.10;99.90;;;;;;4757234;30;20043;-69
2022/04/20 05:55:35;;;;;;;9.45;5.45;;;8.60;99.90;;;;;;4786865;30;20112;-69
2022/04/20 05:58:01;;;;;;;8.55;5.90;;;9.30;99.90;;;;;;4787590;30;20120;-70
2022/04/20 06:00:27;;;;;;;6.60;5.45;;;9.80;99.90;;;;;;4756606;30;20502;-71
2022/04/20 06:02:54;;;;;;;7.10;6.18;;;9.80;99.90;;;;;;4786511;29;20055;-69
2022/04/20 06:05:20;;;;;;;7.30;5.80;;;9.30;99.90;;;;;;4770457;30;20047;-69
2022/04/20 06:07:47;;;;;;;8.18;5.53;;;8.70;99.90;;;;;;4771853;29;20157;-70
2022/04/20 06:10:13;;;;;;;11.00;5.85;;;8.30;99.90;;;;;;4770454;30;20056;-69
2022/04/20 06:12:39;;;;;;;8.73;5.20;;;8.00;99.90;;;;;;4775458;30;20718;-71
2022/04/20 06:15:08;;;;;;;8.45;5.90;;;7.80;99.90;;;;;;4779245;30;20398;-68
2022/04/20 06:17:36;;;;;;;7.05;5.50;;;7.70;99.90;;;;;;4785017;29;20059;-69
2022/04/20 06:20:03;;;;;;;6.13;5.53;;;7.70;99.90;;;;;;4782266;30;20501;-69
2022/04/20 06:22:29;;;;;;;6.72;5.13;;;7.70;99.90;;;;;;4778007;30;20135;-70
2022/04/20 06:24:55;;;;;;;5.57;5.07;;;7.70;99.90;;;;;;4779191;30;20155;-70
2022/04/20 06:27:21;;;;;;;7.80;5.55;;;7.80;99.90;;;;;;4777688;29;20056;-70
2022/04/20 06:29:46;;;;;;;6.50;5.32;;;7.80;99.90;;;;;;4769628;30;20067;-73
2022/04/20 06:32:12;;;;;;;7.68;5.13;;;7.90;99.90;;;;;;4780548;29;20082;-69
2022/04/20 06:34:37;;;;;;;8.15;5.60;;;8.00;99.90;;;;;;4753526;30;20063;-70
2022/04/20 06:37:05;;;;;;;8.00;4.93;;;8.10;99.90;;;;;;4781405;29;20122;-69
2022/04/20 06:39:31;;;;;;;7.72;4.97;;;8.20;99.90;;;;;;4768508;30;20059;-71
2022/04/20 06:41:57;;;;;;;5.55;4.50;;;8.30;99.90;;;;;;4772495;30;20062;-69
2022/04/20 06:44:22;;;;;;;10.18;4.78;;;8.40;99.90;;;;;;4771696;30;20475;-68
2022/04/20 06:46:48;;;;;;;9.70;4.70;;;8.50;99.90;;;;;;4773038;30;20058;-67
2022/04/20 06:49:14;;;;;;;5.97;5.05;;;8.60;99.90;;;;;;4772422;30;20113;-68
2022/04/20 06:59:53;;;;;;;8.10;4.80;;;8.80;99.90;;;;;;4776970;30;20064;-70
2022/04/20 07:02:20;;;;;;;5.40;4.88;;;8.90;99.90;;;;;;4770615;30;20063;-71
2022/04/20 07:04:46;;;;;;;5.40;4.90;;;8.90;99.90;;;;;;4770549;30;20101;-70
2022/04/20 07:07:12;;;;;;;6.07;5.15;;;9.00;99.90;;;;;;4770497;30;20074;-69
2022/04/20 07:09:38;;;;;;;6.35;4.75;;;9.10;99.90;;;;;;4771711;30;20135;-69
2022/04/20 07:12:04;;;;;;;7.15;4.80;;;9.20;99.90;;;;;;4770571;30;20047;-68
2022/04/20 07:14:29;;;;;;;7.32;4.90;;;9.20;99.90;;;;;;4771172;30;20051;-71
2022/04/20 07:16:59;;;;;;;6.57;4.90;;;9.40;99.90;;;;;;4769699;30;20139;-71
2022/04/20 07:19:24;;;;;;;8.63;5.32;;;9.50;99.90;;;;;;4773064;30;20070;-68
2022/04/20 07:21:50;;;;;;;5.60;4.80;;;9.60;99.90;;;;;;4771465;30;20060;-68
2022/04/20 07:24:15;;;;;;;8.27;5.18;;;9.70;99.90;;;;;;4771687;30;20144;-69
2022/04/20 07:26:41;;;;;;;5.70;5.13;;;9.80;99.90;;;;;;4771627;30;20063;-68
2022/04/20 07:29:06;;;;;;;5.57;4.50;;;9.90;99.90;;;;;;4770791;30;20100;-67
2022/04/20 07:31:32;;;;;;;7.20;5.25;;;10.10;99.90;;;;;;4786619;30;20110;-68
2022/04/20 07:33:58;;;;;;;7.50;5.15;;;10.20;99.90;;;;;;4786608;30;20044;-69
2022/04/20 07:36:23;;;;;;;6.93;4.38;;;10.40;99.90;;;;;;4786434;30;20545;-70
2022/04/20 07:38:49;;;;;;;7.03;5.00;;;10.40;99.90;;;;;;4771320;30;20070;-70
2022/04/20 07:41:15;;;;;;;5.53;5.03;;;10.50;99.90;;;;;;4786667;30;20081;-70
2022/04/20 07:43:41;;;;;;;6.13;4.47;;;10.60;99.90;;;;;;4771038;30;20071;-69
2022/04/20 07:46:07;;;;;;;7.43;4.45;;;10.60;99.90;;;;;;4786291;30;20067;-69
2022/04/20 07:48:32;;;;;;;8.07;4.43;;;10.70;99.90;;;;;;4771314;30;20145;-70
2022/04/20 07:51:00;;;;;;;5.95;4.32;;;10.80;99.90;;;;;;4772172;30;20075;-69
2022/04/20 07:53:26;;;;;;;7.47;4.03;;;10.80;99.90;;;;;;4770914;30;20087;-69
2022/04/20 07:55:52;;;;;;;6.95;4.55;;;10.90;99.90;;;;;;4786873;30;20152;-70
2022/04/20 07:58:17;;;;;;;5.68;3.83;;;10.90;99.90;;;;;;4785974;30;20139;-69
2022/04/20 08:00:43;;;;;;;4.75;3.92;;;11.00;99.60;;;;;;4785861;30;20082;-70
2022/04/20 08:03:16;;;;;;;4.70;3.72;;;11.10;97.80;;;;;;4786073;30;20139;-71
2022/04/20 08:05:43;;;;;;;5.35;3.60;;;11.30;93.40;;;;;;4771204;30;20444;-70
2022/04/20 08:08:10;;;;;;;6.00;3.75;;;11.40;93.80;;;;;;4771580;30;20063;-69
2022/04/20 08:10:39;;;;;;;5.75;3.70;;;11.60;92.80;;;;;;4786060;30;20052;-69
2022/04/20 08:15:49;;;;;;;6.25;3.58;;;11.70;88.00;;;;;;4770597;30;20055;-69
2022/04/20 08:18:15;;;;;;;5.97;3.35;;;11.70;85.10;;;;;;4770367;30;20059;-68
2022/04/20 08:20:41;;;;;;;5.97;3.70;;;11.90;85.70;;;;;;4788242;30;20062;-70
2022/04/20 08:23:06;;;;;;;4.88;3.53;;;12.00;81.50;;;;;;4789666;30;20087;-71
2022/04/20 08:25:32;;;;;;;3.85;3.38;;;12.10;78.80;;;;;;4789651;29;20066;-69
2022/04/20 08:27:58;;;;;;;4.97;3.20;;;12.20;78.00;;;;;;4788298;30;20069;-70
2022/04/20 08:30:23;;;;;;;3.58;3.05;;;12.30;75.10;;;;;;4773706;30;20059;-70
2022/04/20 08:32:49;;;;;;;4.32;3.22;;;12.40;71.20;;;;;;4773645;30;20059;-69
2022/04/20 08:35:14;;;;;;;3.80;3.15;;;12.40;70.70;;;;;;4788557;30;20055;-70
2022/04/20 08:37:41;;;;;;;3.45;3.10;;;12.50;69.60;;;;;;4788486;29;20509;-70
2022/04/20 08:40:07;;;;;;;4.75;2.92;;;12.60;68.50;;;;;;4788238;29;20059;-69
2022/04/20 08:42:35;;;;;;;2.92;2.63;;;12.80;68.40;;;;;;4772858;29;20055;-70
2022/04/20 08:45:04;;;;;;;2.80;2.60;;;13.00;66.90;;;;;;4788733;30;20443;-69
2022/04/20 08:47:39;;;;;;;4.22;3.10;;;13.00;64.40;;;;;;4789601;29;20093;-71
2022/04/20 08:50:06;;;;;;;4.15;2.40;;;13.10;64.90;;;;;;4788450;30;20059;-70
2022/04/20 08:52:38;;;;;;;3.38;2.17;;;13.20;63.90;;;;;;4772820;30;20055;-70
2022/04/20 08:55:07;;;;;;;2.57;1.80;;;13.30;61.00;;;;;;4789610;30;20185;-70
2022/04/20 08:57:33;;;;;;;2.95;2.42;;;13.40;59.10;;;;;;4787311;30;20120;-71
2022/04/20 09:00:00;;;;;;;3.15;2.60;;;13.40;58.30;;;;;;4774118;30;20066;-69
2022/04/20 09:02:28;;;;;;;3.78;2.30;;;13.50;58.00;;;;;;4787940;29;20113;-71
2022/04/20 09:04:57;;;;;;;3.38;2.38;;;13.60;57.70;;;;;;4774576;30;20054;-71
2022/04/20 09:07:27;;;;;;;4.80;2.13;;;13.60;57.70;;;;;;4773550;30;20054;-71
2022/04/20 09:09:52;;;;;;;3.58;2.38;;;13.70;57.40;;;;;;4787853;30;20160;-69
2022/04/20 09:12:20;;;;;;;7.40;2.00;;;13.80;57.10;;;;;;4787752;30;20454;-70
2022/04/20 09:14:48;;;;;;;4.32;2.20;;;13.90;56.30;;;;;;4773398;30;20089;-71
2022/04/20 09:17:18;;;;;;;2.10;1.90;;;13.80;55.00;;;;;;4788978;30;20055;-70
2022/04/20 09:19:49;;;;;;;2.83;2.00;;;13.80;54.90;;;;;;4773315;30;20138;-69
2022/04/20 09:22:23;;;;;;;3.60;2.05;;;13.90;53.50;;;;;;4788260;29;20051;-70
2022/04/20 09:25:03;;;;;;;3.72;1.90;;;13.90;52.80;;;;;;4789988;29;20055;-70
2022/04/20 09:27:36;;;;;;;6.70;2.15;;;14.10;52.50;;;;;;4787579;29;20148;-74
2022/04/20 09:30:04;;;;;;;2.63;1.80;;;14.10;52.10;;;;;;4772749;30;20058;-70
2022/04/20 09:32:31;;;;;;;2.80;1.80;;;14.10;51.80;;;;;;4788015;30;20092;-70
2022/04/20 09:35:03;;;;;;;3.03;2.10;;;14.20;51.60;;;;;;4787726;29;20409;-67
2022/04/20 09:37:29;;;;;;;2.72;1.85;;;14.20;51.30;;;;;;4787146;29;20293;-69
2022/04/20 09:39:55;;;;;;;2.28;1.83;;;14.30;52.10;;;;;;4774386;30;20131;-70
2022/04/20 09:42:21;;;;;;;2.38;1.80;;;14.40;51.60;;;;;;4788724;29;20146;-68
2022/04/20 09:45:01;;;;;;;3.05;1.77;;;14.40;51.00;;;;;;4758258;30;20055;-69
2022/04/20 09:50:29;;;;;;;4.50;1.88;;;14.20;49.40;;;;;;4788853;29;20059;-71
2022/04/20 09:52:59;;;;;;;2.13;1.60;;;14.40;49.30;;;;;;4758187;30;20065;-68
2022/04/20 09:55:30;;;;;;;2.75;2.00;;;14.40;50.20;;;;;;4788334;29;20438;-70
2022/04/20 10:05:23;;;;;;;3.10;2.03;;;14.90;48.50;;;;;;4788093;30;20054;-69
2022/04/20 10:07:49;;;;;;;5.57;1.95;;;15.00;49.00;;;;;;4787624;29;20528;-70
2022/04/20 10:10:14;;;;;;;2.15;1.88;;;15.00;48.60;;;;;;4788698;30;20063;-70
2022/04/20 10:12:42;;;;;;;3.00;1.98;;;15.10;48.20;;;;;;4786701;30;20051;-69
2022/04/20 10:17:57;;;;;;;4.22;2.20;;;15.20;48.70;;;;;;4787139;30;20051;-69
2022/04/20 10:20:29;;;;;;;3.33;2.40;;;15.20;47.90;;;;;;4787557;29;20052;-71
2022/04/20 10:23:01;;;;;;;2.28;2.00;;;15.20;48.00;;;;;;4769771;30;20051;-69
2022/04/20 10:25:28;;;;;;;3.00;2.10;;;15.20;48.80;;;;;;4770376;30;20055;-70
2022/04/20 10:28:25;;;;;;;2.53;2.33;;;15.30;50.00;;;;;;4786379;29;20055;-68
2022/04/20 10:31:00;;;;;;;2.88;2.22;;;15.20;48.30;;;;;;4787858;30;20106;-68
2022/04/20 10:33:31;;;;;;;3.65;2.45;;;15.00;48.80;;;;;;4771790;29;20454;-68
2022/04/20 10:36:04;;;;;;;2.83;2.22;;;15.10;49.20;;;;;;4787795;29;20047;-69
2022/04/20 10:38:31;;;;;;;4.90;2.72;;;15.10;49.70;;;;;;4787288;29;20070;-69
2022/04/20 10:41:16;;;;;;;3.15;2.33;;;15.20;49.20;;;;;;4787204;29;20135;-70
2022/04/20 10:43:43;;;;;;;3.28;2.20;;;15.10;48.20;;;;;;4784791;30;20505;-69
2022/04/20 10:46:20;;;;;;;2.60;2.22;;;15.10;49.90;;;;;;4787823;30;20099;-69
2022/04/20 10:49:02;;;;;;;6.57;3.08;;;15.30;49.80;;;;;;4787818;29;20441;-70
2022/04/20 10:51:32;;;;;;;2.67;2.47;;;15.40;50.10;;;;;;4787522;29;20059;-67
2022/04/20 10:54:27;;;;;;;3.17;2.55;;;15.50;49.40;;;;;;4787119;29;20059;-69
2022/04/20 10:57:05;;;;;;;3.85;2.42;;;15.30;48.80;;;;;;4786517;30;20063;-69
2022/04/20 10:59:32;;;;;;;4.32;2.42;;;15.40;49.90;;;;;;4786547;30;20134;-70
2022/04/20 11:02:03;;;;;;;4.45;2.33;;;15.50;50.00;;;;;;4769690;30;20101;-68
2022/04/20 11:04:39;;;;;;;3.95;2.65;;;15.60;49.30;;;;;;4787676;29;20463;-68
2022/04/20 11:07:06;;;;;;;2.72;2.10;;;15.60;49.70;;;;;;4787323;30;20139;-68
2022/04/20 11:09:48;;;;;;;2.67;2.10;;;15.70;50.20;;;;;;4787447;29;20134;-69
2022/04/20 11:18:42;;;;;;;2.80;1.90;;;16.20;48.40;;;;;;4785744;30;20058;-70
2022/04/20 11:21:09;;;;;;;2.20;2.00;;;16.10;47.90;;;;;;4768582;30;20055;-69
2022/04/20 11:24:23;;;;;;;2.70;1.90;;;16.10;48.30;;;;;;4770109;30;20063;-69
2022/04/20 11:26:51;;;;;;;1.92;1.55;;;16.30;47.20;;;;;;4777489;30;20051;-71
2022/04/20 11:29:25;;;;;;;2.10;1.83;;;16.20;46.50;;;;;;4772855;30;20097;-69
2022/04/20 11:32:02;;;;;;;2.63;1.48;;;16.10;46.70;;;;;;4772799;30;20047;-70
2022/04/20 11:34:32;;;;;;;2.08;1.63;;;16.20;47.30;;;;;;4785538;29;20047;-71
2022/04/20 11:37:00;;;;;;;2.47;1.95;;;16.30;46.80;;;;;;4773796;30;20059;-69
2022/04/20 11:39:27;;;;;;;3.13;1.80;;;16.30;46.40;;;;;;4774531;30;20157;-69
2022/04/20 11:41:55;;;;;;;2.97;1.83;;;16.40;46.30;;;;;;4772930;30;20058;-70
2022/04/20 11:44:26;;;;;;;3.63;1.83;;;16.50;46.30;;;;;;4789189;29;20088;-70
2022/04/20 11:46:57;;;;;;;2.13;1.70;;;16.40;45.60;;;;;;4774239;30;20067;-70
2022/04/20 11:49:33;;;;;;;2.92;1.65;;;16.40;45.70;;;;;;4774081;30;20073;-68
2022/04/20 11:51:59;;;;;;;1.40;1.30;;;16.40;45.10;;;;;;4787102;30;20057;-67
2022/04/20 11:54:26;;;;;;;2.67;1.88;;;16.50;45.00;;;;;;4788831;29;20047;-68
2022/04/20 11:56:51;;;;;;;3.67;1.70;;;16.50;44.50;;;;;;4789787;29;20071;-67
2022/04/20 11:59:28;;;;;;;2.78;1.58;;;16.60;45.30;;;;;;4788950;30;20062;-70
2022/04/20 12:01:55;;;;;;;4.53;1.90;;;16.80;45.40;;;;;;4774644;30;20070;-69
2022/04/20 12:04:22;;;;;;;3.95;1.77;;;17.00;44.60;;;;;;4773740;30;20091;-68
2022/04/20 12:06:52;;;;;;;1.90;1.70;;;16.90;44.30;;;;;;4789921;30;20377;-71
2022/04/20 12:09:45;;;;;;;2.67;1.60;;;16.80;44.00;;;;;;4772907;30;20057;-69
2022/04/20 12:12:16;;;;;;;1.70;1.60;;;16.80;43.50;;;;;;4774339;30;20109;-69
2022/04/20 12:14:43;;;;;;;2.75;1.60;;;16.80;44.20;;;;;;4788344;29;20147;-70
2022/04/20 12:17:14;;;;;;;1.73;1.35;;;16.90;44.30;;;;;;4777604;29;20046;-70
2022/04/20 12:19:42;;;;;;;1.42;1.20;;;17.00;43.50;;;;;;4807939;29;20055;-68
2022/04/20 12:22:14;;;;;;;2.80;1.70;;;17.10;44.10;;;;;;4799907;29;20104;-68
2022/04/20 12:24:41;;;;;;;2.17;1.70;;;17.10;43.50;;;;;;4788631;29;20051;-69
2022/04/20 12:27:18;;;;;;;2.25;1.50;;;17.00;43.50;;;;;;4773821;30;20100;-68
2022/04/20 12:29:45;;;;;;;2.25;1.55;;;16.90;43.90;;;;;;4788265;29;20066;-70
2022/04/20 12:32:10;;;;;;;2.65;1.75;;;16.80;43.70;;;;;;4789216;29;20058;-69
2022/04/20 12:34:36;;;;;;;1.90;1.58;;;16.80;43.20;;;;;;4772811;30;20054;-68
2022/04/20 12:37:14;;;;;;;2.08;1.40;;;16.80;43.50;;;;;;4788763;29;20055;-68
2022/04/20 12:39:44;;;;;;;2.55;1.65;;;16.80;43.20;;;;;;4773321;30;20074;-68
2022/04/20 12:42:13;;;;;;;3.45;1.60;;;16.80;43.00;;;;;;4772371;30;20066;-69
2022/04/20 12:44:52;;;;;;;2.20;1.70;;;16.70;42.70;;;;;;4786318;29;20086;-70
2022/04/20 12:47:18;;;;;;;4.22;1.65;;;16.80;42.70;;;;;;4773229;30;20066;-71
2022/04/20 12:50:00;;;;;;;2.03;1.60;;;16.90;43.40;;;;;;4773044;30;20102;-70
2022/04/20 12:52:29;;;;;;;1.63;1.50;;;17.00;43.50;;;;;;4773458;30;20066;-69
2022/04/20 12:54:56;;;;;;;2.42;1.48;;;17.20;44.00;;;;;;4789278;30;20066;-70
2022/04/20 13:03:10;;;;;;;3.83;1.50;;;17.30;42.80;;;;;;4788695;30;20051;-70
2022/04/20 13:05:37;;;;;;;2.65;1.75;;;17.10;42.90;;;;;;4786487;30;20090;-69
2022/04/20 13:08:04;;;;;;;3.15;1.80;;;17.00;43.40;;;;;;4787109;29;20138;-68
2022/04/20 13:10:30;;;;;;;2.00;1.80;;;17.10;44.00;;;;;;4788635;30;20515;-69
2022/04/20 13:12:56;;;;;;;3.00;1.90;;;17.10;43.70;;;;;;4771875;30;20059;-69
2022/04/20 13:15:24;;;;;;;2.60;2.40;;;17.20;44.20;;;;;;4788379;30;20051;-71
2022/04/20 13:17:51;;;;;;;3.28;1.90;;;17.30;44.50;;;;;;4788503;29;20056;-68
2022/04/20 13:20:17;;;;;;;3.08;2.22;;;17.30;44.50;;;;;;4786504;29;20487;-70
2022/04/20 13:22:43;;;;;;;3.15;2.28;;;17.30;44.00;;;;;;4787078;29;20098;-70
2022/04/20 13:27:54;;;;;;;3.55;2.08;;;17.30;44.10;;;;;;4770561;30;20055;-70
2022/04/20 13:30:29;;;;;;;3.28;2.30;;;17.30;44.50;;;;;;4784586;29;20055;-68
2022/04/20 13:32:56;;;;;;;2.22;2.03;;;17.40;44.70;;;;;;4786652;30;20047;-69
2022/04/20 13:35:23;;;;;;;3.25;2.40;;;17.50;45.20;;;;;;4772087;30;20110;-69
2022/04/20 13:38:22;;;;;;;2.65;2.45;;;17.70;45.30;;;;;;4789000;30;20055;-68
2022/04/20 13:44:41;;;;;;;2.95;2.10;;;17.70;45.00;;;;;;4783327;29;20046;-70
2022/04/20 13:47:07;;;;;;;4.47;2.47;;;17.90;45.10;;;;;;4770353;30;20055;-69
2022/04/20 13:49:36;;;;;;;4.45;2.53;;;17.80;45.10;;;;;;4787911;30;20047;-69